createdAt,value
2022-12-11T00:00:29.112Z,9.48
2022-12-11T00:01:14.115Z,8.25
2022-12-11T00:01:59.220Z,11.06
2022-12-11T00:02:44.322Z,8.95
2022-12-11T00:03:29.495Z,8.25
2022-12-11T00:04:14.470Z,6.57
2022-12-11T00:04:59.866Z,8.95
2022-12-11T00:05:44.630Z,8.95
2022-12-11T00:06:29.508Z,10.18
2022-12-11T00:07:59.683Z,7.11
2022-12-11T00:08:44.677Z,8.42
2022-12-11T00:09:29.887Z,9.48
2022-12-11T00:10:14.786Z,8.42
2022-12-11T00:10:59.788Z,9.65
2022-12-11T00:11:44.908Z,9.30
2022-12-11T00:12:29.866Z,10.36
2022-12-11T00:13:14.917Z,9.83
2022-12-11T00:14:00.457Z,9.65
2022-12-11T00:14:45.033Z,9.30
2022-12-11T00:15:30.114Z,10.18
2022-12-11T00:16:15.419Z,9.13
2022-12-11T00:17:00.259Z,7.80
2022-12-11T00:17:45.269Z,11.41
2022-12-11T00:18:30.482Z,9.83
2022-12-11T00:19:15.574Z,10.53
2022-12-11T00:20:00.460Z,9.13
2022-12-11T00:20:46.123Z,10.53
2022-12-11T00:21:30.545Z,8.95
2022-12-11T00:22:15.593Z,8.48
2022-12-11T00:23:00.647Z,11.06
2022-12-11T00:23:45.831Z,10.00
2022-12-11T00:24:30.872Z,8.78
2022-12-11T00:25:15.958Z,9.48
2022-12-11T00:26:00.887Z,9.13
2022-12-11T00:26:46.156Z,8.21
2022-12-11T00:27:30.989Z,7.90
2022-12-11T00:28:16.078Z,10.36
2022-12-11T00:29:01.145Z,8.78
2022-12-11T00:29:46.524Z,8.78
2022-12-11T00:30:31.359Z,10.53
2022-12-11T00:31:16.297Z,9.48
2022-12-11T00:32:01.530Z,11.41
2022-12-11T00:32:46.552Z,9.83
2022-12-11T00:33:31.584Z,6.43
2022-12-11T00:34:16.528Z,9.30
2022-12-11T00:35:01.619Z,9.48
2022-12-11T00:35:46.789Z,9.13
2022-12-11T00:36:31.556Z,10.53
2022-12-11T00:37:16.681Z,9.30
2022-12-11T00:38:01.671Z,8.07
2022-12-11T00:38:47.223Z,9.30
2022-12-11T00:39:31.812Z,7.90
2022-12-11T00:40:16.958Z,7.90
2022-12-11T00:41:02.259Z,8.95
2022-12-11T00:41:50.143Z,8.60
2022-12-11T00:42:32.123Z,8.60
2022-12-11T00:43:18.238Z,9.83
2022-12-11T00:44:02.405Z,10.53
2022-12-11T00:44:47.649Z,9.65
2022-12-11T00:45:32.644Z,9.48
2022-12-11T00:46:17.527Z,8.07
2022-12-11T00:47:02.556Z,10.00
2022-12-11T00:47:48.026Z,9.65
2022-12-11T00:48:32.774Z,8.07
2022-12-11T00:49:17.649Z,8.78
2022-12-11T00:50:02.791Z,6.84
2022-12-11T00:50:48.092Z,8.78
2022-12-11T00:51:32.925Z,6.43
2022-12-11T00:52:18.144Z,9.13
2022-12-11T00:53:03.132Z,9.30
2022-12-11T00:53:48.116Z,8.78
2022-12-11T00:54:33.596Z,8.25
2022-12-11T00:55:18.190Z,8.25
2022-12-11T00:56:03.283Z,10.36
2022-12-11T00:56:48.600Z,9.48
2022-12-11T00:57:33.297Z,10.18
2022-12-11T00:58:20.670Z,8.78
2022-12-11T00:59:03.594Z,7.90
2022-12-11T00:59:48.750Z,7.55
2022-12-11T01:00:33.588Z,9.48
2022-12-11T01:01:18.614Z,7.53
2022-12-11T01:02:03.710Z,8.60
2022-12-11T01:02:48.787Z,5.88
2022-12-11T01:03:33.697Z,9.30
2022-12-11T01:04:18.780Z,9.13
2022-12-11T01:05:03.837Z,9.65
2022-12-11T01:05:49.101Z,7.72
2022-12-11T03:32:20.097Z,16.72
2022-12-11T03:32:28.494Z,13.01
2022-12-11T03:33:15.117Z,11.25
2022-12-11T03:34:02.288Z,14.77
2022-12-11T03:34:58.339Z,13.82
2022-12-11T03:35:30.745Z,16.79
2022-12-11T03:36:23.991Z,14.48
2022-12-11T03:36:57.397Z,13.69
2022-12-11T03:37:42.443Z,10.73
2022-12-11T03:38:27.505Z,13.17
2022-12-11T03:39:12.267Z,12.51
2022-12-11T03:39:57.456Z,12.84
2022-12-11T03:40:46.280Z,12.73
2022-12-11T03:41:27.532Z,10.82
2022-12-11T03:42:12.802Z,12.51
2022-12-11T03:43:00.606Z,13.17
2022-12-11T03:44:20.947Z,12.31
2022-12-11T03:44:31.523Z,12.31
2022-12-11T03:47:49.421Z,10.53
2022-12-11T03:48:34.579Z,13.82
2022-12-11T03:49:19.345Z,11.96
2022-12-11T03:50:04.927Z,15.47
2022-12-11T03:50:49.568Z,12.18
2022-12-11T03:51:34.554Z,9.54
2022-12-11T03:52:19.664Z,13.49
2022-12-11T03:53:04.841Z,10.55
2022-12-11T03:53:49.895Z,12.66
2022-12-11T03:54:34.849Z,11.94
2022-12-11T03:55:19.848Z,11.85
2022-12-11T03:56:04.957Z,11.25
2022-12-11T03:56:50.124Z,9.85
2022-12-11T03:57:34.905Z,10.90
2022-12-11T03:58:20.003Z,9.85
2022-12-11T03:59:05.221Z,11.63
2022-12-11T03:59:50.286Z,11.96
2022-12-11T04:00:35.337Z,14.42
2022-12-11T04:01:20.364Z,12.36
2022-12-11T04:02:05.605Z,12.01
2022-12-11T04:02:50.503Z,13.60
2022-12-11T04:03:35.628Z,9.23
2022-12-11T04:04:20.483Z,10.51
2022-12-11T04:05:05.653Z,10.90
2022-12-11T04:05:50.646Z,12.76
2022-12-11T04:06:35.687Z,14.64
2022-12-11T04:07:23.654Z,11.60
2022-12-11T04:08:12.543Z,12.80
2022-12-11T04:09:13.012Z,10.90
2022-12-11T04:09:39.660Z,11.20
2022-12-11T04:10:20.835Z,14.40
2022-12-11T04:11:05.929Z,14.40
2022-12-11T04:11:50.874Z,14.00
2022-12-11T04:12:36.093Z,10.89
2022-12-11T04:13:21.164Z,11.52
2022-12-11T04:14:06.199Z,12.39
2022-12-11T04:14:54.440Z,9.85
2022-12-11T04:15:37.340Z,10.51
2022-12-11T04:16:23.162Z,13.89
2022-12-11T04:17:06.336Z,13.89
2022-12-11T04:17:51.700Z,13.20
2022-12-11T04:18:49.577Z,12.22
2022-12-11T04:19:34.152Z,13.12
2022-12-11T04:20:06.867Z,15.84
2022-12-11T04:20:52.042Z,13.05
2022-12-11T04:21:39.475Z,13.51
2022-12-11T04:22:21.944Z,15.84
2022-12-11T04:23:06.932Z,13.98
2022-12-11T04:23:52.354Z,12.67
2022-12-11T04:24:36.966Z,14.93
2022-12-11T04:25:22.259Z,13.57
2022-12-11T04:26:07.189Z,12.58
2022-12-11T04:26:52.211Z,16.31
2022-12-11T04:27:36.941Z,13.05
2022-12-11T04:28:22.290Z,13.51
2022-12-11T04:29:07.169Z,13.05
2022-12-11T04:29:52.556Z,13.05
2022-12-11T04:30:37.339Z,15.83
2022-12-11T04:31:22.884Z,13.43
2022-12-11T04:32:07.459Z,14.39
2022-12-11T04:32:52.354Z,15.35
2022-12-11T04:33:37.616Z,16.31
2022-12-11T04:34:22.639Z,14.39
2022-12-11T04:35:07.792Z,17.75
2022-12-11T04:35:53.008Z,14.73
2022-12-11T04:36:37.771Z,16.25
2022-12-11T04:37:22.760Z,17.77
2022-12-11T04:39:29.872Z,18.79
2022-12-11T12:36:49.529Z,6.05
2022-12-11T12:39:05.415Z,6.55
2022-12-11T12:41:11.180Z,5.82
2022-12-11T12:42:24.985Z,4.91
2022-12-11T12:42:43.741Z,6.00
2022-12-11T12:44:10.127Z,6.37
2022-12-11T12:44:48.888Z,5.64
2022-12-11T12:45:33.154Z,5.82
2022-12-11T12:47:04.149Z,5.73
2022-12-11T12:47:55.631Z,5.27
2022-12-11T12:48:45.228Z,6.73
2022-12-11T12:51:33.366Z,4.73
2022-12-11T12:52:54.100Z,5.64
2022-12-11T12:53:03.790Z,6.05
2022-12-11T18:52:08.649Z,5.79
2022-12-11T18:54:48.537Z,6.14
2022-12-11T18:55:19.303Z,7.72
2022-12-11T18:56:00.955Z,5.97
2022-12-11T18:56:45.710Z,7.20
2022-12-11T19:02:39.833Z,5.20
2022-12-11T22:16:50.180Z,6.85
2022-12-11T22:17:34.917Z,5.44
2022-12-11T22:18:27.436Z,5.20
2022-12-11T22:19:05.177Z,5.44
2022-12-11T22:19:50.481Z,7.02
2022-12-11T22:21:21.226Z,5.20
2022-12-11T22:22:05.491Z,6.02
2022-12-11T22:22:53.624Z,5.62
2022-12-11T22:23:38.548Z,6.67
2022-12-11T22:24:23.501Z,6.32
2022-12-11T22:25:14.907Z,6.14
2022-12-11T22:26:00.087Z,6.49
2022-12-11T22:26:39.691Z,5.34
2022-12-11T22:27:24.058Z,6.32
2022-12-11T22:28:05.704Z,7.37
2022-12-11T22:28:52.236Z,6.49
2022-12-11T22:29:35.713Z,6.14
2022-12-11T22:30:20.614Z,4.93
2022-12-11T22:31:05.772Z,5.62
2022-12-11T22:31:50.781Z,4.24
2022-12-11T22:32:35.957Z,6.67
2022-12-11T22:33:22.003Z,6.14
2022-12-11T22:34:05.959Z,6.67
2022-12-11T22:34:51.071Z,7.02
2022-12-11T22:35:36.065Z,8.95
2022-12-11T22:36:20.990Z,6.14
2022-12-11T22:37:06.062Z,5.97
2022-12-11T22:37:51.230Z,5.79
2022-12-11T22:38:36.156Z,5.27
2022-12-11T22:39:21.381Z,5.20
2022-12-11T22:40:06.259Z,5.27
2022-12-11T22:40:51.320Z,5.79
2022-12-11T22:41:36.407Z,7.02
2022-12-11T22:42:21.444Z,5.79
2022-12-11T22:43:06.499Z,5.09
2022-12-11T22:43:59.649Z,6.49
2022-12-11T22:44:36.566Z,6.32
2022-12-11T22:45:21.720Z,6.32
2022-12-11T22:46:06.888Z,7.55
2022-12-11T22:46:51.731Z,7.02
2022-12-11T22:47:36.749Z,5.62
2022-12-11T22:48:25.251Z,5.44
2022-12-11T22:49:07.058Z,5.44
2022-12-11T22:49:53.067Z,5.20
2022-12-11T22:52:55.784Z,4.24
2022-12-11T22:53:39.590Z,7.20
2022-12-11T22:54:28.196Z,5.79
2022-12-11T22:55:07.670Z,5.09
2022-12-11T22:55:52.244Z,4.10
2022-12-11T22:56:37.351Z,6.49
2022-12-11T22:57:22.378Z,5.79
2022-12-11T22:58:10.621Z,5.44
2022-12-11T22:58:52.390Z,5.97
2022-12-11T23:00:24.894Z,6.14
2022-12-11T23:01:08.461Z,6.32
2022-12-11T23:02:38.029Z,6.32
2022-12-11T23:03:23.331Z,4.38
2022-12-11T23:04:08.344Z,5.62
2022-12-11T23:04:54.368Z,6.32
2022-12-11T23:05:46.896Z,7.72
2022-12-11T23:07:17.882Z,8.95
2022-12-11T23:08:43.998Z,7.55
2022-12-11T23:09:23.158Z,7.20
2022-12-11T23:10:12.265Z,6.49
2022-12-11T23:10:53.178Z,6.14
2022-12-11T23:11:38.802Z,4.65
2022-12-11T23:12:24.402Z,6.85
2022-12-11T23:13:08.606Z,6.14
2022-12-11T23:13:53.453Z,6.32
2022-12-11T23:14:38.560Z,6.32
2022-12-11T23:15:23.516Z,7.20
2022-12-11T23:16:08.601Z,6.14
2022-12-11T23:16:53.652Z,7.55
2022-12-11T23:17:38.679Z,6.14
2022-12-11T23:18:23.834Z,6.14
2022-12-11T23:19:08.816Z,6.49
2022-12-11T23:19:57.854Z,6.14
2022-12-11T23:20:42.088Z,6.57
2022-12-11T23:21:23.849Z,5.34
2022-12-11T23:22:15.699Z,6.14
2022-12-11T23:22:54.122Z,6.85
2022-12-11T23:23:39.093Z,7.02
2022-12-11T23:24:24.291Z,7.02
2022-12-11T23:25:12.492Z,7.02
2022-12-11T23:25:54.478Z,6.14
2022-12-11T23:26:40.658Z,6.67
2022-12-11T23:27:24.327Z,7.37
2022-12-11T23:28:09.376Z,7.90
2022-12-11T23:28:54.418Z,6.85
2022-12-11T23:29:42.654Z,6.49
2022-12-11T23:30:24.532Z,6.85
2022-12-11T23:31:09.844Z,6.67
2022-12-11T23:32:30.589Z,6.67
2022-12-11T23:37:15.340Z,6.32
2022-12-11T23:38:00.273Z,6.49
2022-12-11T23:38:40.776Z,7.02
2022-12-11T23:41:08.920Z,6.14
